MMPG

Piedras Negras International Airport

Airport
ICAO code
MMPG
IATA Code
PDS
Summary
ICAO Region
CARSAM
ICAO Territory
Location

Piedras Negras Municipality, Coahuila de Zaragoza

Serving
Piedras Negras
Elevation
901 ft
Coordinates
28° 37' 39" N , 100° 32' 7" W
KCC
Metar
MMPG 151749Z 14012KT 10SM SKC 35/21 A2991 RMK ISOL CU

Piedras Negras International Airport is an international airport located at Piedras Negras, Coahuila, Mexico, near the U.S.-Mexico border.

Climatology

Semi-arid Climate (Köppen climate classification BSh)

Runways

Designator Length Width Surface Rops
12/30 2028 30 ASP No/No

Airport map

Aerial View

SKYbrary Partners:

Safety knowledge contributed by: